createdAt,value
2022-11-03T00:02:16.498Z,3.50
2022-11-03T00:04:45.011Z,7.80
2022-11-03T00:07:13.685Z,6.40
2022-11-03T00:09:42.300Z,8.40
2022-11-03T00:12:10.644Z,17.70
2022-11-03T00:14:39.186Z,18.60
2022-11-03T00:17:07.568Z,25.10
2022-11-03T00:19:35.926Z,39.20
2022-11-03T00:22:04.322Z,56.80
2022-11-03T00:24:32.765Z,62.10
2022-11-03T00:27:01.201Z,66.70
2022-11-03T00:29:29.547Z,64.10
2022-11-03T00:31:57.982Z,52.00
2022-11-03T00:34:26.340Z,40.80
2022-11-03T00:36:54.696Z,48.30
2022-11-03T00:39:23.109Z,54.70
2022-11-03T00:41:51.483Z,65.20
2022-11-03T00:44:20.234Z,74.50
2022-11-03T00:46:48.664Z,80.30
2022-11-03T00:49:17.040Z,82.40
2022-11-03T00:51:45.409Z,89.30
2022-11-03T00:54:13.927Z,90.30
2022-11-03T00:56:43.478Z,86.70
2022-11-03T00:59:11.863Z,92.90
2022-11-03T01:01:47.800Z,97.50
2022-11-03T01:04:36.287Z,99.90
2022-11-03T01:07:07.215Z,99.50
2022-11-03T01:09:37.401Z,97.80
2022-11-03T01:12:15.071Z,90.80
2022-11-03T01:14:52.140Z,93.30
2022-11-03T01:17:25.677Z,93.10
2022-11-03T01:19:54.824Z,97.10
2022-11-03T01:22:24.660Z,97.50
2022-11-03T01:24:53.220Z,99.90
2022-11-03T01:27:23.898Z,99.90
2022-11-03T01:29:52.292Z,99.90
2022-11-03T01:32:20.685Z,99.90
2022-11-03T01:34:49.080Z,99.90
2022-11-03T01:37:17.478Z,99.90
2022-11-03T01:39:45.870Z,99.90
2022-11-03T01:42:15.368Z,99.90
2022-11-03T01:44:50.513Z,99.90
2022-11-03T01:47:21.636Z,99.90
2022-11-03T01:50:00.954Z,99.90
2022-11-03T01:52:53.192Z,99.90
2022-11-03T01:55:25.556Z,99.90
2022-11-03T01:58:19.894Z,99.90
2022-11-03T02:00:52.067Z,99.90
2022-11-03T02:03:21.683Z,99.90
2022-11-03T02:05:52.269Z,99.90
2022-11-03T02:08:27.156Z,99.90
2022-11-03T02:10:55.539Z,99.90
2022-11-03T02:13:26.032Z,99.90
2022-11-03T02:15:58.930Z,99.90
2022-11-03T02:18:33.773Z,99.90
2022-11-03T02:21:26.969Z,99.90
2022-11-03T02:24:35.852Z,99.90
2022-11-03T02:27:04.236Z,99.90
2022-11-03T02:29:32.679Z,99.90
2022-11-03T02:32:25.173Z,99.90
2022-11-03T02:35:02.722Z,99.90
2022-11-03T02:37:36.666Z,99.90
2022-11-03T02:40:14.071Z,99.90
2022-11-03T02:42:45.980Z,99.90
2022-11-03T02:45:17.605Z,99.90
2022-11-03T02:47:47.551Z,99.90
2022-11-03T02:50:15.914Z,99.90
2022-11-03T02:52:47.490Z,99.90
2022-11-03T02:55:38.906Z,99.90
2022-11-03T02:58:22.619Z,99.90
2022-11-03T03:01:20.472Z,99.90
2022-11-03T03:04:10.637Z,99.90
2022-11-03T03:06:47.642Z,99.90
2022-11-03T03:09:21.658Z,99.90
2022-11-03T03:11:52.658Z,99.90
2022-11-03T03:14:25.709Z,99.90
2022-11-03T03:17:08.812Z,99.90
2022-11-03T03:20:02.686Z,99.90
2022-11-03T03:22:57.578Z,99.90
2022-11-03T03:25:36.456Z,99.90
2022-11-03T03:28:16.779Z,99.90
2022-11-03T03:30:47.389Z,99.90
2022-11-03T03:33:17.307Z,99.90
2022-11-03T03:35:49.400Z,99.90
2022-11-03T03:38:24.907Z,99.90
2022-11-03T03:40:56.659Z,99.90
2022-11-03T03:43:27.652Z,99.90
2022-11-03T03:46:01.152Z,99.90
2022-11-03T03:48:29.653Z,99.90
2022-11-03T03:50:58.641Z,99.90
2022-11-03T03:53:30.527Z,99.90
2022-11-03T03:56:00.224Z,99.90
2022-11-03T03:58:28.684Z,99.90
2022-11-03T04:00:57.350Z,99.90
2022-11-03T04:03:27.343Z,99.90
2022-11-03T04:05:55.999Z,99.90
2022-11-03T04:08:24.491Z,99.90
2022-11-03T04:11:11.417Z,99.90
2022-11-03T04:13:58.321Z,99.90
2022-11-03T04:16:45.500Z,99.90
2022-11-03T04:19:32.327Z,99.90
2022-11-03T04:22:19.139Z,99.90
2022-11-03T04:24:52.371Z,99.90
2022-11-03T04:27:30.439Z,99.90
2022-11-03T04:30:11.241Z,99.90
2022-11-03T04:32:39.748Z,99.90
2022-11-03T04:35:34.228Z,99.90
2022-11-03T04:38:06.350Z,99.90
2022-11-03T04:40:35.018Z,99.90
2022-11-03T04:43:11.413Z,99.90
2022-11-03T04:45:40.226Z,99.90
2022-11-03T04:48:14.613Z,99.90
2022-11-03T04:50:46.726Z,99.90
2022-11-03T04:53:20.578Z,99.90
2022-11-03T04:55:51.536Z,99.90
2022-11-03T04:58:22.207Z,99.90
2022-11-03T05:01:00.558Z,99.90
2022-11-03T05:03:35.930Z,99.90
2022-11-03T05:06:20.054Z,99.90
2022-11-03T05:08:57.530Z,99.90
2022-11-03T05:11:45.289Z,99.90
2022-11-03T05:14:23.962Z,99.90
2022-11-03T05:16:57.016Z,99.90
2022-11-03T05:19:45.492Z,99.90
2022-11-03T05:22:18.562Z,99.90
2022-11-03T05:24:46.969Z,99.90
2022-11-03T05:27:21.843Z,99.90
2022-11-03T05:29:55.171Z,99.90
2022-11-03T05:32:29.683Z,99.90
2022-11-03T05:34:59.017Z,99.90
2022-11-03T05:37:32.549Z,99.90
2022-11-03T05:40:11.328Z,99.90
2022-11-03T05:42:43.671Z,99.90
2022-11-03T05:45:25.693Z,99.90
2022-11-03T05:47:58.202Z,99.90
2022-11-03T05:50:29.308Z,99.90
2022-11-03T05:53:44.072Z,99.90
2022-11-03T05:56:24.746Z,99.90
2022-11-03T05:58:56.636Z,99.90
2022-11-03T06:01:32.430Z,99.90
2022-11-03T06:04:16.602Z,99.90
2022-11-03T06:06:52.326Z,99.90
2022-11-03T06:09:24.063Z,99.90
2022-11-03T06:11:58.686Z,99.90
2022-11-03T06:14:29.355Z,99.90
2022-11-03T06:17:06.893Z,99.90
2022-11-03T06:19:48.952Z,99.90
2022-11-03T06:22:20.740Z,99.90
2022-11-03T06:24:49.476Z,99.90
2022-11-03T06:27:23.447Z,99.90
2022-11-03T06:30:01.319Z,99.90
2022-11-03T06:32:30.025Z,99.90
2022-11-03T06:35:20.418Z,99.90
2022-11-03T07:03:23.939Z,99.90
2022-11-03T07:06:13.890Z,99.90
2022-11-03T07:08:47.313Z,99.90
2022-11-03T07:11:23.427Z,99.90
2022-11-03T07:13:58.984Z,99.90
2022-11-03T07:16:30.088Z,99.90
2022-11-03T07:19:02.598Z,99.90
2022-11-03T07:21:39.521Z,99.90
2022-11-03T07:24:37.229Z,99.90
2022-11-03T07:27:32.111Z,99.90
2022-11-03T07:30:24.674Z,99.90
2022-11-03T07:32:55.825Z,99.90
2022-11-03T07:35:46.983Z,99.90
2022-11-03T07:38:23.580Z,99.90
2022-11-03T07:40:54.147Z,99.90
2022-11-03T07:43:39.131Z,99.90
2022-11-03T07:46:07.848Z,99.90
2022-11-03T07:48:49.828Z,99.90
2022-11-03T07:51:30.800Z,99.90
2022-11-03T07:54:06.583Z,99.90
2022-11-03T07:56:39.134Z,99.90
2022-11-03T07:59:10.747Z,99.90
2022-11-03T08:01:43.324Z,99.90
2022-11-03T08:04:21.146Z,99.90
2022-11-03T08:06:49.665Z,99.90
2022-11-03T08:09:18.434Z,99.90
2022-11-03T08:11:47.539Z,99.90
2022-11-03T08:14:15.942Z,99.90
2022-11-03T08:16:44.987Z,99.90
2022-11-03T08:19:13.604Z,99.90
2022-11-03T08:21:42.158Z,99.90
2022-11-03T08:24:10.544Z,99.90
2022-11-03T08:26:39.036Z,99.90
2022-11-03T08:29:07.453Z,99.90
2022-11-03T08:31:35.784Z,99.90
2022-11-03T08:34:04.390Z,99.90
2022-11-03T08:36:32.935Z,99.90
2022-11-03T08:39:01.310Z,99.90
2022-11-03T08:41:29.668Z,99.90
2022-11-03T08:43:58.167Z,99.90
2022-11-03T08:46:26.518Z,99.90
2022-11-03T08:48:55.543Z,99.90
2022-11-03T08:51:24.087Z,99.90
2022-11-03T08:53:54.802Z,99.90
2022-11-03T08:56:23.569Z,99.90
2022-11-03T08:58:52.433Z,99.90
2022-11-03T09:01:20.917Z,99.90
2022-11-03T09:03:49.493Z,99.90
2022-11-03T09:06:18.040Z,99.90
2022-11-03T09:11:35.678Z,99.90
2022-11-03T09:14:04.742Z,99.90
2022-11-03T09:16:33.067Z,99.90
2022-11-03T09:19:01.431Z,99.90
2022-11-03T09:21:29.835Z,99.90
2022-11-03T09:24:00.286Z,99.90
2022-11-03T09:26:29.041Z,99.90
2022-11-03T09:28:57.498Z,99.90
2022-11-03T09:31:29.128Z,99.80
2022-11-03T09:33:57.596Z,99.40
2022-11-03T09:36:25.968Z,98.80
2022-11-03T09:38:54.451Z,98.50
2022-11-03T09:41:44.273Z,98.10
2022-11-03T09:44:13.357Z,96.00
2022-11-03T09:46:42.337Z,94.60
2022-11-03T09:49:16.393Z,93.30
2022-11-03T09:51:45.358Z,91.20
2022-11-03T09:54:18.216Z,91.70
2022-11-03T09:56:48.094Z,92.70
2022-11-03T09:59:19.160Z,94.00
2022-11-03T10:01:50.901Z,93.80
2022-11-03T10:04:23.929Z,96.20
2022-11-03T10:06:52.311Z,97.10
2022-11-03T10:09:24.552Z,98.90
2022-11-03T10:11:55.241Z,99.90
2022-11-03T10:14:25.194Z,99.90
2022-11-03T10:17:02.721Z,99.90
2022-11-03T10:19:32.697Z,99.90
2022-11-03T10:22:01.091Z,99.90
2022-11-03T10:24:29.518Z,99.90
2022-11-03T10:26:57.895Z,99.90
2022-11-03T10:29:28.372Z,99.90
2022-11-03T10:31:59.420Z,99.90
2022-11-03T10:34:34.573Z,99.90
2022-11-03T10:37:12.455Z,99.90
2022-11-03T10:39:40.958Z,99.90
2022-11-03T10:42:27.214Z,99.90
2022-11-03T10:45:21.334Z,99.90
2022-11-03T10:48:05.835Z,99.90
2022-11-03T10:50:34.382Z,99.90
2022-11-03T10:53:04.438Z,99.90
2022-11-03T10:55:34.281Z,99.90
2022-11-03T10:58:02.995Z,99.90
2022-11-03T11:00:31.371Z,99.90
2022-11-03T11:03:01.828Z,99.90
2022-11-03T11:05:30.406Z,99.90
2022-11-03T11:08:00.911Z,99.90
2022-11-03T11:10:32.229Z,99.90
2022-11-03T11:13:19.647Z,99.90
2022-11-03T11:15:52.181Z,99.90
2022-11-03T11:18:40.616Z,99.90
2022-11-03T11:21:20.360Z,99.90
2022-11-03T11:23:49.975Z,99.90
2022-11-03T11:26:39.692Z,99.90
2022-11-03T11:29:11.155Z,99.90
2022-11-03T11:31:43.737Z,99.90
2022-11-03T11:34:13.190Z,99.90
2022-11-03T11:36:43.938Z,99.90
2022-11-03T11:39:24.915Z,99.90
2022-11-03T11:42:12.640Z,99.90
2022-11-03T11:44:41.064Z,99.90
2022-11-03T11:47:30.528Z,99.90
2022-11-03T11:50:13.032Z,99.90
2022-11-03T11:52:47.170Z,99.90
2022-11-03T11:55:41.016Z,99.90
2022-11-03T11:58:44.681Z,99.90
2022-11-03T12:01:24.864Z,99.90
2022-11-03T12:03:56.008Z,99.90
2022-11-03T12:06:41.296Z,99.90
2022-11-03T12:09:14.117Z,99.90
2022-11-03T12:11:56.268Z,99.90
2022-11-03T12:14:38.791Z,99.90
2022-11-03T12:17:19.144Z,99.90
2022-11-03T12:19:49.857Z,99.90
2022-11-03T12:22:27.073Z,99.90
2022-11-03T12:25:00.200Z,99.90
2022-11-03T12:27:28.517Z,99.90
2022-11-03T12:29:59.040Z,99.90
2022-11-03T12:32:35.741Z,99.90
2022-11-03T12:35:05.499Z,99.90
2022-11-03T12:37:33.975Z,99.90
2022-11-03T12:40:02.396Z,99.90
2022-11-03T12:42:30.865Z,99.90
2022-11-03T12:44:59.309Z,99.90
2022-11-03T12:47:27.685Z,99.90
2022-11-03T12:49:56.104Z,99.90
2022-11-03T12:52:25.741Z,99.90
2022-11-03T12:54:54.065Z,99.90
2022-11-03T12:57:22.437Z,99.90
2022-11-03T12:59:52.345Z,99.90
2022-11-03T13:02:20.959Z,99.90
2022-11-03T13:04:49.378Z,99.90
2022-11-03T13:07:22.289Z,99.90
2022-11-03T13:09:55.067Z,99.90
2022-11-03T13:12:32.371Z,99.90
2022-11-03T13:15:02.382Z,99.90
2022-11-03T13:17:40.423Z,99.90
2022-11-03T13:20:19.506Z,99.90
2022-11-03T13:22:47.845Z,99.90
2022-11-03T13:25:16.381Z,99.90
2022-11-03T13:27:44.865Z,99.90
2022-11-03T13:30:13.728Z,99.90
2022-11-03T13:32:42.488Z,99.90
2022-11-03T13:35:13.995Z,99.90
2022-11-03T13:37:43.319Z,99.90
2022-11-03T13:40:35.724Z,99.90
2022-11-03T13:43:02.044Z,99.90
2022-11-03T13:45:30.490Z,99.90
2022-11-03T13:50:51.663Z,99.90
2022-11-03T13:56:11.412Z,99.90
2022-11-03T14:01:32.184Z,99.90
2022-11-03T14:06:49.033Z,99.90
2022-11-03T14:09:17.401Z,99.90
2022-11-03T14:12:04.162Z,99.90
2022-11-03T14:14:32.748Z,99.90
2022-11-03T14:17:01.305Z,99.90
2022-11-03T14:19:37.883Z,99.90
2022-11-03T14:22:10.084Z,99.90
2022-11-03T14:24:38.549Z,99.90
2022-11-03T14:27:06.901Z,99.90
2022-11-03T14:29:35.549Z,99.90
2022-11-03T14:32:04.031Z,99.90
2022-11-03T14:34:32.479Z,99.90
2022-11-03T14:37:00.937Z,99.90
2022-11-03T14:39:29.751Z,99.90
2022-11-03T14:42:04.552Z,99.90
2022-11-03T14:44:39.199Z,99.90
2022-11-03T14:47:11.450Z,99.90
2022-11-03T14:49:39.993Z,99.90
2022-11-03T14:52:08.927Z,99.90
2022-11-03T14:54:37.769Z,99.90
2022-11-03T14:57:06.625Z,99.90
2022-11-03T14:59:35.656Z,99.90
2022-11-03T15:02:04.807Z,99.90
2022-11-03T15:04:33.447Z,99.90
2022-11-03T15:07:02.118Z,99.90
2022-11-03T15:09:30.659Z,99.90
2022-11-03T15:11:59.094Z,99.90
2022-11-03T15:14:27.457Z,99.90
2022-11-03T15:16:55.854Z,99.90
2022-11-03T15:19:24.232Z,99.90
2022-11-03T15:21:52.568Z,99.90
2022-11-03T15:27:09.298Z,99.90
2022-11-03T15:29:38.382Z,99.90
2022-11-03T15:32:07.611Z,99.90
2022-11-03T15:34:36.008Z,99.90
2022-11-03T15:37:04.376Z,99.90
2022-11-03T15:39:33.368Z,99.90
2022-11-03T15:42:01.865Z,99.90
2022-11-03T15:44:30.265Z,99.90
2022-11-03T15:46:58.626Z,99.90
2022-11-03T15:49:27.163Z,99.90
2022-11-03T15:51:55.515Z,99.90
2022-11-03T15:54:23.933Z,99.90
2022-11-03T15:56:52.463Z,99.90
2022-11-03T15:59:20.887Z,99.90
2022-11-03T16:01:49.470Z,99.90
2022-11-03T16:04:18.029Z,99.90
2022-11-03T16:07:06.918Z,99.90
2022-11-03T16:09:34.916Z,99.90
2022-11-03T16:12:03.453Z,99.90
2022-11-03T16:14:31.839Z,99.90
2022-11-03T16:17:00.428Z,99.90
2022-11-03T16:19:28.894Z,99.90
2022-11-03T16:21:57.283Z,99.90
2022-11-03T16:24:33.287Z,99.90
2022-11-03T16:27:04.125Z,99.90
2022-11-03T16:29:32.597Z,99.90
2022-11-03T16:32:01.001Z,99.90
2022-11-03T16:34:29.706Z,99.90
2022-11-03T16:36:58.295Z,99.90
2022-11-03T16:39:26.699Z,99.90
2022-11-03T16:41:55.814Z,99.90
2022-11-03T16:44:24.328Z,94.10
2022-11-03T16:46:52.685Z,91.60
2022-11-03T16:49:21.494Z,71.10
2022-11-03T16:51:50.381Z,91.90
2022-11-03T16:54:18.796Z,92.30
2022-11-03T16:56:51.901Z,88.00
2022-11-03T16:59:25.171Z,82.40
2022-11-03T17:01:54.466Z,76.10
2022-11-03T17:04:22.853Z,75.10
2022-11-03T17:06:51.308Z,64.80
2022-11-03T17:09:19.685Z,55.40
2022-11-03T17:11:48.115Z,52.10
2022-11-03T17:14:16.601Z,32.90
2022-11-03T17:16:49.258Z,36.50
2022-11-03T17:19:17.780Z,32.60
2022-11-03T17:21:46.244Z,11.20
2022-11-03T17:24:14.632Z,20.80
2022-11-03T17:27:23.334Z,28.80
2022-11-03T17:29:55.483Z,18.00
2022-11-03T17:32:29.468Z,14.70
2022-11-03T17:34:59.043Z,7.70
2022-11-03T17:37:27.788Z,4.90
2022-11-03T17:39:57.805Z,8.20
2022-11-03T17:42:27.427Z,13.30
2022-11-03T17:44:57.690Z,13.10
2022-11-03T17:47:26.474Z,13.60
2022-11-03T17:49:54.979Z,3.60
2022-11-03T17:52:28.916Z,1.00
2022-11-03T17:55:01.267Z,1.00
2022-11-03T17:57:30.479Z,4.70
2022-11-03T18:00:01.483Z,1.90
2022-11-03T18:02:33.257Z,1.00
2022-11-03T18:05:16.797Z,1.00
2022-11-03T18:07:47.079Z,1.00
2022-11-03T18:10:15.582Z,1.00
2022-11-03T18:13:07.836Z,1.00
2022-11-03T18:15:40.301Z,1.00
2022-11-03T18:18:17.044Z,1.00
2022-11-03T18:20:53.112Z,1.00
2022-11-03T18:23:27.940Z,1.00
2022-11-03T18:25:56.400Z,1.00
2022-11-03T18:28:24.831Z,1.00
2022-11-03T18:30:55.889Z,1.00
2022-11-03T18:33:37.016Z,1.00
2022-11-03T18:36:07.777Z,1.00
2022-11-03T18:38:38.135Z,1.00
2022-11-03T18:41:27.526Z,1.00
2022-11-03T18:43:55.861Z,1.00
2022-11-03T18:46:24.210Z,1.00
2022-11-03T18:48:52.948Z,1.00
2022-11-03T18:51:21.397Z,1.00
2022-11-03T18:53:49.850Z,1.00
2022-11-03T18:56:20.701Z,1.00
2022-11-03T18:58:51.691Z,1.00
2022-11-03T19:01:27.894Z,1.00
2022-11-03T19:03:59.504Z,1.00
2022-11-03T19:06:28.295Z,1.00
2022-11-03T19:09:01.011Z,1.00
2022-11-03T19:11:29.552Z,1.00
2022-11-03T19:13:57.959Z,1.00
2022-11-03T19:16:26.788Z,1.00
2022-11-03T19:18:55.206Z,1.00
2022-11-03T19:21:25.794Z,1.00
2022-11-03T19:23:58.016Z,1.00
2022-11-03T19:26:36.443Z,1.00
2022-11-03T19:29:10.123Z,1.00
2022-11-03T19:31:57.080Z,1.00
2022-11-03T19:34:32.384Z,1.00
2022-11-03T19:37:01.097Z,1.00
2022-11-03T19:39:34.301Z,1.00
2022-11-03T19:42:28.704Z,1.00
2022-11-03T19:44:58.929Z,1.00
2022-11-03T19:47:32.700Z,1.00
2022-11-03T19:50:03.273Z,1.00
2022-11-03T19:52:33.284Z,1.00
2022-11-03T19:55:06.446Z,1.00
2022-11-03T19:57:34.976Z,1.00
2022-11-03T20:00:04.552Z,1.00
2022-11-03T20:02:33.106Z,1.00
2022-11-03T20:05:01.718Z,1.00
2022-11-03T20:07:31.907Z,1.00
2022-11-03T20:10:02.638Z,2.10
2022-11-03T20:12:32.009Z,9.90
2022-11-03T20:15:00.437Z,14.30
2022-11-03T20:17:28.977Z,20.00
2022-11-03T20:19:57.380Z,36.20
2022-11-03T20:22:30.321Z,25.50
2022-11-03T20:25:03.870Z,29.70
2022-11-03T20:27:33.623Z,31.50
2022-11-03T20:30:02.973Z,40.20
2022-11-03T20:32:31.396Z,40.00
2022-11-03T20:34:59.845Z,39.30
2022-11-03T20:37:28.205Z,53.00
2022-11-03T20:39:56.563Z,56.70
2022-11-03T20:42:28.306Z,51.20
2022-11-03T20:44:56.654Z,41.60
2022-11-03T20:47:25.330Z,42.50
2022-11-03T20:49:53.744Z,35.80
2022-11-03T20:52:22.101Z,34.00
2022-11-03T20:54:51.884Z,39.00
2022-11-03T20:57:20.303Z,20.00
2022-11-03T20:59:48.696Z,26.20
2022-11-03T21:02:17.206Z,41.00
2022-11-03T21:04:45.843Z,28.10
2022-11-03T21:07:14.698Z,36.80
2022-11-03T21:09:43.091Z,33.00
2022-11-03T21:12:15.171Z,54.60
2022-11-03T21:15:02.244Z,48.20
2022-11-03T21:17:48.992Z,68.40
2022-11-03T21:20:17.484Z,63.40
2022-11-03T21:22:54.300Z,45.40
2022-11-03T21:25:24.884Z,36.40
2022-11-03T21:27:54.511Z,32.00
2022-11-03T21:30:24.248Z,27.80
2022-11-03T21:32:52.784Z,23.70
2022-11-03T21:35:23.033Z,22.70
2022-11-03T21:37:51.483Z,22.70
2022-11-03T21:40:20.211Z,24.20
2022-11-03T21:43:07.900Z,1.00
2022-11-03T21:45:36.979Z,18.90
2022-11-03T21:48:23.977Z,13.60
2022-11-03T21:50:52.848Z,20.20
2022-11-03T21:53:21.396Z,17.10
2022-11-03T21:55:54.387Z,6.80
2022-11-03T21:58:22.732Z,1.00
2022-11-03T22:00:51.099Z,4.40
2022-11-03T22:03:19.505Z,1.00
2022-11-03T22:05:47.847Z,1.00
2022-11-03T22:08:16.274Z,1.00
2022-11-03T22:10:44.715Z,1.00
2022-11-03T22:13:13.055Z,1.00
2022-11-03T22:16:00.102Z,1.00
2022-11-03T22:18:28.562Z,1.00
2022-11-03T22:21:28.291Z,1.00
2022-11-03T22:24:15.011Z,1.00
2022-11-03T22:27:00.600Z,1.00
2022-11-03T22:29:47.375Z,1.00
2022-11-03T22:32:16.260Z,1.00
2022-11-03T22:35:03.126Z,1.00
2022-11-03T22:40:17.093Z,1.00
2022-11-03T22:43:03.942Z,1.00
2022-11-03T22:45:50.741Z,1.00
2022-11-03T22:48:20.183Z,1.00
2022-11-03T22:50:48.780Z,1.00
2022-11-03T22:53:35.487Z,1.00
2022-11-03T22:56:03.861Z,1.00
2022-11-03T22:58:32.197Z,1.00
2022-11-03T23:01:08.524Z,1.00
2022-11-03T23:03:38.669Z,1.00
2022-11-03T23:06:09.355Z,1.00
2022-11-03T23:08:39.247Z,1.00
2022-11-03T23:11:19.874Z,1.00
2022-11-03T23:13:56.525Z,1.00
2022-11-03T23:16:27.270Z,1.00
2022-11-03T23:19:14.310Z,1.00
2022-11-03T23:21:44.547Z,1.00
2022-11-03T23:24:32.187Z,1.00
2022-11-03T23:27:00.924Z,1.00
2022-11-03T23:29:29.944Z,1.00
2022-11-03T23:32:00.489Z,1.00
2022-11-03T23:34:29.619Z,1.00
2022-11-03T23:37:00.300Z,1.00
2022-11-03T23:39:28.765Z,1.00
2022-11-03T23:41:57.234Z,1.00
2022-11-03T23:44:25.628Z,1.00
2022-11-03T23:47:12.159Z,1.00
2022-11-03T23:49:40.502Z,1.00
2022-11-03T23:52:08.875Z,1.00
2022-11-03T23:54:37.292Z,1.00
2022-11-03T23:57:24.193Z,1.00
2022-11-03T23:59:52.611Z,1.00
